createdAt,value
2023-02-06T00:00:39.624Z,23.42
2023-02-06T00:03:06.324Z,22.88
2023-02-06T00:06:32.622Z,19.73
2023-02-06T00:08:34.717Z,18.30
2023-02-06T00:11:13.255Z,23.38
2023-02-06T00:13:40.549Z,19.30
2023-02-06T00:16:15.575Z,20.05
2023-02-06T00:18:48.995Z,18.80
2023-02-06T00:24:02.494Z,17.88
2023-02-06T00:26:32.996Z,18.98
2023-02-06T00:28:59.979Z,19.92
2023-02-06T00:31:27.030Z,21.25
2023-02-06T00:33:56.968Z,21.80
2023-02-06T00:36:27.066Z,22.25
2023-02-06T00:38:54.135Z,20.55
2023-02-06T00:41:21.477Z,19.95
2023-02-06T00:43:48.639Z,19.10
2023-02-06T00:46:18.029Z,18.40
2023-02-06T00:48:47.770Z,19.80
2023-02-06T00:51:17.657Z,16.60
2023-02-06T00:53:44.909Z,16.08
2023-02-06T00:56:12.106Z,16.52
2023-02-06T00:58:41.488Z,16.48
2023-02-06T01:01:08.750Z,18.67
2023-02-06T01:03:41.135Z,19.42
2023-02-06T01:06:11.011Z,19.20
2023-02-06T01:08:41.192Z,15.85
2023-02-06T01:11:21.804Z,15.82
2023-02-06T01:13:52.370Z,16.38
2023-02-06T01:16:21.182Z,16.58
2023-02-06T01:18:51.211Z,16.80
2023-02-06T01:21:22.047Z,16.90
2023-02-06T01:23:50.392Z,18.50
2023-02-06T01:26:18.209Z,19.67
2023-02-06T01:28:45.973Z,25.02
2023-02-06T01:31:17.456Z,20.95
2023-02-06T01:33:47.979Z,21.17
2023-02-06T01:36:18.479Z,21.08
2023-02-06T01:38:45.620Z,19.55
2023-02-06T01:41:13.866Z,19.35
2023-02-06T01:43:55.680Z,23.63
2023-02-06T01:46:25.333Z,21.92
2023-02-06T01:48:57.730Z,21.90
2023-02-06T01:52:01.159Z,20.00
2023-02-06T01:54:31.288Z,17.52
2023-02-06T01:57:00.926Z,18.33
2023-02-06T01:59:31.299Z,17.20
2023-02-06T02:02:02.961Z,18.60
2023-02-06T02:04:35.653Z,19.58
2023-02-06T02:07:18.212Z,19.63
2023-02-06T02:09:50.913Z,21.27
2023-02-06T02:12:38.218Z,20.48
2023-02-06T02:15:14.294Z,17.95
2023-02-06T02:17:47.191Z,19.33
2023-02-06T02:20:29.373Z,20.13
2023-02-06T02:22:58.363Z,19.83
2023-02-06T02:25:42.077Z,21.77
2023-02-06T02:29:04.931Z,20.67
2023-02-06T02:31:36.586Z,20.88
2023-02-06T02:34:20.270Z,19.02
2023-02-06T02:37:02.164Z,19.88
2023-02-06T02:42:41.712Z,22.38
2023-02-06T02:45:22.571Z,23.02
2023-02-06T02:48:20.142Z,22.45
2023-02-06T02:53:58.601Z,21.65
2023-02-06T02:54:02.252Z,23.48
2023-02-06T02:56:28.815Z,21.10
2023-02-06T02:59:01.126Z,18.45
2023-02-06T03:01:39.587Z,18.40
2023-02-06T03:04:09.221Z,20.20
2023-02-06T03:06:39.053Z,18.88
2023-02-06T03:09:26.129Z,18.08
2023-02-06T03:12:00.139Z,21.88
2023-02-06T03:14:30.517Z,21.80
2023-02-06T03:17:07.973Z,21.30
2023-02-06T03:19:47.324Z,21.35
2023-02-06T03:22:15.079Z,28.25
2023-02-06T03:24:41.821Z,20.80
2023-02-06T03:27:15.379Z,17.60
2023-02-06T03:29:45.444Z,15.93
2023-02-06T03:32:34.264Z,16.90
2023-02-06T03:35:26.599Z,17.40
2023-02-06T03:37:59.155Z,15.65
2023-02-06T03:40:26.851Z,15.75
2023-02-06T03:43:02.788Z,14.52
2023-02-06T03:48:31.601Z,12.50
2023-02-06T03:51:11.309Z,12.10
2023-02-06T03:53:44.426Z,13.15
2023-02-06T03:56:15.225Z,14.10
2023-02-06T03:58:42.457Z,14.55
2023-02-06T04:01:10.496Z,14.65
2023-02-06T04:03:40.160Z,15.30
2023-02-06T04:06:13.022Z,16.00
2023-02-06T04:08:40.369Z,15.07
2023-02-06T04:11:07.126Z,13.98
2023-02-06T04:13:43.091Z,14.23
2023-02-06T04:16:12.899Z,13.88
2023-02-06T04:18:39.762Z,13.45
2023-02-06T04:24:07.029Z,14.68
2023-02-06T04:26:36.123Z,14.20
2023-02-06T04:29:03.091Z,13.52
2023-02-06T04:31:30.326Z,14.88
2023-02-06T04:33:57.382Z,15.63
2023-02-06T04:36:27.209Z,18.13
2023-02-06T04:38:56.374Z,17.98
2023-02-06T04:41:25.550Z,19.52
2023-02-06T04:43:52.597Z,20.23
2023-02-06T04:46:19.580Z,21.38
2023-02-06T04:48:48.771Z,19.42
2023-02-06T04:51:32.002Z,19.35
2023-02-06T04:53:58.893Z,18.60
2023-02-06T04:56:26.060Z,16.45
2023-02-06T04:59:03.037Z,16.73
2023-02-06T05:01:30.095Z,16.13
2023-02-06T05:03:59.450Z,17.70
2023-02-06T05:06:35.625Z,18.02
2023-02-06T05:09:06.362Z,17.33
2023-02-06T05:11:36.354Z,18.65
2023-02-06T05:14:12.138Z,22.75
2023-02-06T05:16:39.126Z,21.73
2023-02-06T05:19:06.396Z,22.27
2023-02-06T05:24:16.144Z,24.13
2023-02-06T05:26:42.949Z,24.38
2023-02-06T05:29:10.152Z,24.67
2023-02-06T05:31:39.514Z,25.27
2023-02-06T05:34:12.203Z,24.90
2023-02-06T05:36:42.820Z,25.88
2023-02-06T05:39:09.732Z,25.08
2023-02-06T05:41:38.830Z,26.08
2023-02-06T05:44:11.419Z,24.50
2023-02-06T05:46:41.548Z,26.25
2023-02-06T05:49:08.383Z,25.75
2023-02-06T05:51:35.332Z,26.88
2023-02-06T05:54:02.157Z,28.33
2023-02-06T05:56:29.212Z,27.35
2023-02-06T05:58:56.190Z,27.30
2023-02-06T06:01:26.182Z,26.67
2023-02-06T06:03:53.257Z,24.77
2023-02-06T06:06:20.485Z,23.60
2023-02-06T06:08:47.392Z,26.23
2023-02-06T06:11:14.095Z,25.67
2023-02-06T06:13:42.471Z,27.45
2023-02-06T06:16:24.340Z,28.40
2023-02-06T06:18:51.674Z,27.00
2023-02-06T06:21:21.160Z,28.13
2023-02-06T06:23:50.529Z,28.88
2023-02-06T06:36:37.469Z,34.22
2023-02-06T07:12:06.740Z,60.33
2023-02-06T09:43:53.624Z,19.75
2023-02-06T09:46:51.060Z,19.73
2023-02-06T10:23:19.704Z,12.90
2023-02-06T10:25:58.706Z,11.57
2023-02-06T10:31:53.957Z,13.45
2023-02-06T10:34:20.858Z,12.40
2023-02-06T10:36:50.854Z,20.40
2023-02-06T11:25:21.949Z,12.15
2023-02-06T12:01:09.039Z,11.73
2023-02-06T12:30:52.567Z,10.95
2023-02-06T12:37:01.237Z,9.45
2023-02-06T12:43:34.830Z,10.40
2023-02-06T12:46:30.901Z,11.27
2023-02-06T12:49:37.913Z,11.25
2023-02-06T13:00:21.479Z,14.23
2023-02-06T13:09:55.599Z,13.38
2023-02-06T13:12:58.980Z,13.57
2023-02-06T13:25:53.455Z,13.80
2023-02-06T14:33:43.788Z,17.70
2023-02-06T14:42:51.000Z,32.05
2023-02-06T15:03:38.421Z,37.38
2023-02-06T15:06:29.821Z,30.02
2023-02-06T15:16:31.244Z,44.53
2023-02-06T15:25:49.155Z,86.88
2023-02-06T17:36:36.786Z,49.03
2023-02-06T18:04:54.748Z,76.20
2023-02-06T18:11:57.118Z,95.85
2023-02-06T18:13:58.138Z,107.65
2023-02-06T18:16:54.869Z,116.22
2023-02-06T18:20:05.458Z,97.10
2023-02-06T18:51:50.670Z,81.20
2023-02-06T18:54:44.948Z,91.18
2023-02-06T18:57:30.033Z,93.35
2023-02-06T19:02:59.345Z,88.80
2023-02-06T19:15:53.996Z,77.95
2023-02-06T19:54:01.438Z,72.30
2023-02-06T20:00:09.951Z,64.65
2023-02-06T20:09:26.896Z,70.35
2023-02-06T20:12:07.086Z,73.75
2023-02-06T20:21:45.407Z,67.78
2023-02-06T20:30:19.465Z,68.93
2023-02-06T21:00:36.819Z,84.45
2023-02-06T21:09:40.574Z,87.15
2023-02-06T21:15:36.140Z,84.97
2023-02-06T21:28:45.975Z,86.82
2023-02-06T21:31:20.351Z,92.60
2023-02-06T21:33:50.233Z,88.53
2023-02-06T21:39:12.845Z,82.72
2023-02-06T21:41:40.065Z,86.63
2023-02-06T21:44:07.159Z,85.80
2023-02-06T21:46:35.081Z,79.97
2023-02-06T21:49:06.769Z,82.05
2023-02-06T21:51:33.785Z,77.55
2023-02-06T21:54:03.303Z,81.65
2023-02-06T21:57:37.531Z,83.72
2023-02-06T22:06:14.458Z,81.68
2023-02-06T22:08:42.864Z,71.32
2023-02-06T22:11:16.206Z,78.72
2023-02-06T22:13:43.587Z,76.13
2023-02-06T22:16:14.895Z,77.32
2023-02-06T22:18:42.606Z,72.75
2023-02-06T22:21:14.758Z,79.28
2023-02-06T22:23:42.074Z,80.38
2023-02-06T22:26:11.145Z,82.60
2023-02-06T22:28:41.176Z,82.40
2023-02-06T22:31:12.161Z,80.97
2023-02-06T22:33:41.345Z,72.40
2023-02-06T22:36:09.286Z,87.78
2023-02-06T22:38:36.224Z,85.50
2023-02-06T22:41:04.306Z,81.55
2023-02-06T22:43:32.400Z,79.30
2023-02-06T22:45:59.357Z,78.95
2023-02-06T22:48:29.227Z,78.78
2023-02-06T22:50:56.549Z,72.25
2023-02-06T22:53:30.187Z,66.15
2023-02-06T22:56:11.043Z,63.63
2023-02-06T22:58:37.796Z,66.45
2023-02-06T23:01:04.912Z,65.00
2023-02-06T23:03:38.220Z,63.22
2023-02-06T23:12:13.772Z,66.57
2023-02-06T23:14:40.651Z,66.55
2023-02-06T23:17:07.824Z,62.00
2023-02-06T23:19:34.808Z,56.53
2023-02-06T23:22:01.625Z,54.45
2023-02-06T23:24:35.812Z,55.78
2023-02-06T23:29:58.661Z,49.60
2023-02-06T23:32:25.418Z,52.95
2023-02-06T23:34:52.590Z,52.03
2023-02-06T23:37:19.378Z,53.80
2023-02-06T23:39:46.277Z,54.33
2023-02-06T23:42:13.286Z,53.10
2023-02-06T23:44:40.503Z,56.65
2023-02-06T23:47:07.242Z,51.15
2023-02-06T23:49:34.031Z,54.00
2023-02-06T23:52:17.162Z,58.05
2023-02-06T23:57:46.644Z,54.45
